Time;durP1;ratioP1;P1;durP2;ratioP2;P2;SDS_P1;SDS_P2;PMS_P1;PMS_P2;Temp;Humidity;BMP_temperature;BMP_pressure;BME280_temperature;BME280_humidity;BME280_pressure;Samples;Min_cycle;Max_cycle;Signal;HPM_P1;HPM_P2
2023/01/03 00:01:49;;;;;;;1.50;1.00;;;18.40;65.20;;;;;;5054301;28;20264;-71
2023/01/03 00:04:16;;;;;;;1.02;0.93;;;18.30;65.10;;;;;;5055700;28;20645;-71
2023/01/03 00:06:48;;;;;;;1.77;1.05;;;18.40;65.30;;;;;;5050906;28;20689;-71
2023/01/03 00:09:18;;;;;;;1.80;1.02;;;18.30;65.10;;;;;;5050712;28;20189;-71
2023/01/03 00:14:37;;;;;;;4.03;1.10;;;18.30;65.00;;;;;;5060337;28;20205;-71
2023/01/03 00:17:05;;;;;;;4.25;0.90;;;18.30;65.10;;;;;;5076024;28;20182;-71
2023/01/03 00:19:35;;;;;;;1.55;1.05;;;18.40;65.30;;;;;;5034815;28;20185;-71
2023/01/03 00:22:02;;;;;;;1.25;0.80;;;18.30;65.10;;;;;;5056571;28;20193;-71
2023/01/03 00:24:28;;;;;;;1.38;1.00;;;18.40;65.20;;;;;;5075267;28;20236;-70
2023/01/03 00:26:54;;;;;;;1.85;1.17;;;18.40;65.20;;;;;;5055705;28;20192;-71
2023/01/03 00:29:19;;;;;;;1.77;0.85;;;18.40;65.20;;;;;;5050660;28;20179;-71
2023/01/03 00:31:45;;;;;;;1.27;0.90;;;18.30;65.10;;;;;;5066503;28;20300;-71
2023/01/03 00:34:11;;;;;;;2.60;1.25;;;18.30;65.10;;;;;;5053271;28;20206;-71
2023/01/03 00:36:38;;;;;;;2.55;1.15;;;18.30;65.10;;;;;;5058742;28;20187;-71
2023/01/03 00:39:04;;;;;;;1.25;1.00;;;18.40;65.20;;;;;;5080533;28;20285;-70
2023/01/03 00:41:30;;;;;;;0.90;0.85;;;18.30;65.10;;;;;;5053718;28;20209;-70
2023/01/03 00:43:56;;;;;;;0.82;0.80;;;18.30;65.10;;;;;;5059956;28;20276;-71
2023/01/03 00:46:23;;;;;;;1.40;0.90;;;18.30;65.10;;;;;;5058802;28;20765;-71
2023/01/03 00:48:49;;;;;;;1.60;1.08;;;18.40;65.20;;;;;;5069585;28;20239;-71
2023/01/03 00:51:22;;;;;;;1.63;0.80;;;18.30;65.00;;;;;;5053718;28;20181;-71
2023/01/03 00:53:51;;;;;;;1.23;0.80;;;18.30;65.00;;;;;;5051007;28;20564;-71
2023/01/03 00:56:20;;;;;;;1.73;0.93;;;18.30;65.10;;;;;;5058859;28;20190;-71
2023/01/03 00:58:46;;;;;;;2.35;1.00;;;18.30;65.10;;;;;;5058583;28;20182;-71
2023/01/03 01:01:19;;;;;;;1.35;1.10;;;18.30;65.10;;;;;;5060216;28;20186;-71
2023/01/03 01:03:49;;;;;;;1.00;0.90;;;18.30;65.00;;;;;;5052638;28;20210;-71
2023/01/03 01:06:19;;;;;;;3.17;0.95;;;18.30;65.10;;;;;;5063320;28;20206;-71
2023/01/03 01:08:47;;;;;;;1.73;0.70;;;18.30;65.10;;;;;;5060016;28;20221;-71
2023/01/03 01:11:15;;;;;;;1.60;0.90;;;18.30;65.10;;;;;;5050519;28;20175;-71
2023/01/03 01:13:43;;;;;;;0.82;0.70;;;18.30;65.10;;;;;;5043344;28;20281;-71
2023/01/03 01:16:24;;;;;;;0.95;0.75;;;18.30;65.10;;;;;;5070366;28;20189;-71
2023/01/03 01:18:52;;;;;;;0.75;0.65;;;18.30;65.10;;;;;;5061672;28;20189;-71
2023/01/03 01:21:38;;;;;;;0.73;0.70;;;18.30;65.00;;;;;;5050455;28;20225;-71
2023/01/03 01:24:04;;;;;;;1.33;0.85;;;18.30;65.10;;;;;;5051978;28;20709;-71
2023/01/03 01:26:30;;;;;;;1.55;0.80;;;18.30;65.10;;;;;;5051544;28;20206;-70
2023/01/03 01:28:56;;;;;;;0.70;0.70;;;18.30;65.00;;;;;;5050116;28;20178;-71
2023/01/03 01:31:25;;;;;;;1.85;0.70;;;18.30;65.10;;;;;;5058410;28;20195;-71
2023/01/03 01:33:53;;;;;;;2.35;0.68;;;18.30;65.10;;;;;;5052205;28;20214;-71
2023/01/03 01:36:26;;;;;;;1.20;0.80;;;18.30;65.10;;;;;;5060553;28;20221;-71
2023/01/03 01:38:56;;;;;;;1.13;0.80;;;18.30;65.10;;;;;;5058470;28;20190;-71
2023/01/03 01:44:48;;;;;;;0.88;0.80;;;18.30;65.10;;;;;;5055173;28;20217;-71
2023/01/03 01:47:42;;;;;;;0.80;0.75;;;18.30;65.10;;;;;;5053643;28;20269;-71
2023/01/03 01:50:45;;;;;;;1.38;0.70;;;18.30;65.10;;;;;;5046541;28;20645;-71
2023/01/03 01:53:25;;;;;;;0.85;0.60;;;18.30;65.00;;;;;;5047325;28;20206;-71
2023/01/03 01:56:20;;;;;;;0.68;0.60;;;18.30;65.10;;;;;;5052461;28;20203;-71
2023/01/03 01:58:51;;;;;;;1.85;0.70;;;18.30;65.10;;;;;;5053195;28;20218;-71
2023/01/03 02:01:20;;;;;;;1.30;0.70;;;18.30;65.80;;;;;;5061519;28;20205;-71
2023/01/03 02:04:00;;;;;;;1.67;0.80;;;18.30;65.10;;;;;;5063176;28;20202;-71
2023/01/03 02:06:28;;;;;;;1.20;0.80;;;18.30;65.00;;;;;;5061471;28;20199;-71
2023/01/03 02:08:54;;;;;;;1.45;0.70;;;18.30;65.10;;;;;;5056309;28;20181;-71
2023/01/03 02:13:04;;;;;;;1.30;0.57;;;18.30;65.10;;;;;;5056540;28;20185;-71
2023/01/03 02:15:06;;;;;;;0.93;0.82;;;18.20;65.00;;;;;;5060914;28;20205;-71
2023/01/03 02:18:17;;;;;;;1.38;0.75;;;18.20;65.00;;;;;;5053017;28;20191;-71
2023/01/03 02:21:13;;;;;;;1.45;0.77;;;18.30;65.10;;;;;;5044160;28;20186;-70
2023/01/03 02:24:14;;;;;;;1.10;0.70;;;18.30;65.10;;;;;;5052302;28;20217;-71
2023/01/03 02:27:17;;;;;;;1.77;0.60;;;18.30;65.10;;;;;;5053563;28;20205;-71
2023/01/03 02:30:04;;;;;;;0.77;0.77;;;18.30;65.10;;;;;;5054676;28;20660;-71
2023/01/03 02:33:06;;;;;;;0.82;0.63;;;18.20;65.00;;;;;;5069423;28;20277;-71
2023/01/03 02:35:45;;;;;;;0.77;0.70;;;18.20;65.00;;;;;;5049899;28;20301;-71
2023/01/03 02:38:49;;;;;;;1.13;0.77;;;18.20;65.00;;;;;;5066088;28;20186;-71
2023/01/03 02:41:30;;;;;;;1.25;0.63;;;18.30;65.10;;;;;;5035968;28;20186;-71
2023/01/03 02:44:11;;;;;;;0.63;0.63;;;18.30;65.10;;;;;;5060306;28;20229;-71
2023/01/03 02:47:02;;;;;;;0.90;0.63;;;18.30;65.00;;;;;;5052274;28;20202;-71
2023/01/03 02:49:33;;;;;;;0.50;0.50;;;18.30;65.00;;;;;;5062550;28;20193;-71
2023/01/03 02:52:05;;;;;;;1.40;0.60;;;18.30;65.00;;;;;;5052377;28;20198;-71
2023/01/03 02:54:57;;;;;;;0.80;0.60;;;18.20;65.00;;;;;;5060086;28;20638;-71
2023/01/03 02:57:33;;;;;;;0.88;0.80;;;18.20;65.00;;;;;;5059944;28;20641;-71
2023/01/03 03:00:08;;;;;;;0.50;0.50;;;18.30;65.10;;;;;;5053146;28;20182;-71
2023/01/03 03:02:37;;;;;;;1.13;0.95;;;18.20;65.00;;;;;;5052083;28;20611;-71
2023/01/03 03:05:14;;;;;;;0.70;0.70;;;18.30;65.10;;;;;;5059648;28;20542;-71
2023/01/03 03:07:40;;;;;;;0.77;0.60;;;18.20;65.00;;;;;;5052494;28;20205;-70
2023/01/03 03:13:12;;;;;;;0.70;0.70;;;18.30;65.10;;;;;;5054449;28;20217;-71
2023/01/03 03:16:06;;;;;;;0.70;0.55;;;18.30;65.10;;;;;;5063411;28;20188;-71
2023/01/03 03:18:53;;;;;;;0.73;0.57;;;18.20;65.00;;;;;;5043621;28;20182;-71
2023/01/03 03:28:33;;;;;;;0.90;0.63;;;18.20;65.00;;;;;;5051655;28;20190;-71
2023/01/03 03:30:00;;;;;;;0.77;0.77;;;18.30;65.10;;;;;;5060734;28;20269;-71
2023/01/03 03:32:32;;;;;;;0.50;0.40;;;18.30;65.10;;;;;;5059876;28;20317;-71
2023/01/03 03:35:03;;;;;;;1.60;0.70;;;18.20;64.90;;;;;;5034840;28;20183;-71
2023/01/03 03:37:34;;;;;;;1.50;0.77;;;18.30;65.00;;;;;;5051548;28;20191;-71
2023/01/03 03:46:16;;;;;;;0.68;0.68;;;18.20;64.80;;;;;;5059500;28;20198;-71
2023/01/03 03:51:43;;;;;;;0.82;0.65;;;18.20;64.90;;;;;;5071206;28;20192;-71
2023/01/03 03:54:15;;;;;;;0.70;0.52;;;18.20;64.90;;;;;;5042123;28;20210;-71
2023/01/03 03:56:48;;;;;;;0.50;0.50;;;18.20;64.90;;;;;;5060419;28;20190;-71
2023/01/03 03:59:17;;;;;;;1.77;0.50;;;18.20;64.90;;;;;;5058009;28;20248;-71
2023/01/03 04:01:45;;;;;;;0.50;0.50;;;18.20;64.80;;;;;;5034838;28;20236;-71
2023/01/03 04:04:21;;;;;;;0.60;0.52;;;18.20;64.80;;;;;;5062505;28;20209;-71
2023/01/03 04:06:50;;;;;;;1.10;0.55;;;18.20;64.90;;;;;;5037696;28;20202;-71
2023/01/03 04:09:17;;;;;;;0.40;0.40;;;18.20;64.80;;;;;;5062681;28;20563;-71
2023/01/03 04:11:43;;;;;;;0.60;0.60;;;18.20;64.80;;;;;;5070667;28;20190;-71
2023/01/03 04:14:09;;;;;;;0.57;0.57;;;18.20;64.80;;;;;;5050920;28;20232;-71
2023/01/03 04:16:36;;;;;;;0.90;0.50;;;18.20;64.80;;;;;;5051200;28;20202;-71
2023/01/03 04:19:03;;;;;;;0.52;0.52;;;18.20;64.90;;;;;;5037625;28;20185;-71
2023/01/03 04:21:29;;;;;;;0.40;0.40;;;18.20;64.80;;;;;;5059240;28;20235;-71
2023/01/03 04:23:55;;;;;;;0.70;0.45;;;18.20;64.80;;;;;;5061211;23;20258;-67
2023/01/03 04:26:20;;;;;;;0.45;0.45;;;18.20;64.80;;;;;;5019215;28;20212;-68
2023/01/03 04:28:46;;;;;;;0.70;0.70;;;18.20;64.70;;;;;;5029211;28;20232;-67
2023/01/03 04:31:12;;;;;;;0.60;0.57;;;18.20;64.70;;;;;;5018630;28;20564;-67
2023/01/03 04:33:38;;;;;;;1.00;0.60;;;18.20;64.80;;;;;;5013737;28;20339;-67
2023/01/03 04:36:04;;;;;;;0.70;0.70;;;18.20;64.80;;;;;;5010992;28;20729;-67
2023/01/03 04:38:30;;;;;;;0.75;0.60;;;18.20;64.80;;;;;;5004436;28;20185;-68
2023/01/03 04:41:03;;;;;;;1.38;0.45;;;18.20;64.80;;;;;;4985360;28;20187;-67
2023/01/03 04:46:13;;;;;;;1.17;0.50;;;18.20;64.80;;;;;;4999931;28;20228;-65
2023/01/03 04:48:38;;;;;;;0.43;0.43;;;18.20;64.70;;;;;;4987581;28;20648;-67
2023/01/03 04:51:04;;;;;;;1.52;0.60;;;18.20;64.70;;;;;;5010695;28;20176;-67
2023/01/03 04:53:30;;;;;;;0.73;0.73;;;18.20;64.70;;;;;;4986598;28;20199;-67
2023/01/03 04:55:56;;;;;;;0.60;0.60;;;18.20;64.70;;;;;;5002805;28;20196;-67
2023/01/03 04:58:22;;;;;;;0.60;0.60;;;18.20;64.70;;;;;;5010937;28;20185;-66
2023/01/03 05:00:48;;;;;;;1.40;0.50;;;18.20;64.70;;;;;;5011168;28;20274;-67
2023/01/03 05:03:14;;;;;;;0.88;0.70;;;18.20;64.70;;;;;;4991230;28;20203;-67
2023/01/03 05:05:41;;;;;;;0.50;0.50;;;18.20;64.80;;;;;;5014630;28;20351;-67
2023/01/03 05:08:10;;;;;;;0.45;0.43;;;18.20;64.70;;;;;;4995365;28;20236;-67
2023/01/03 05:10:40;;;;;;;0.50;0.50;;;18.20;64.70;;;;;;5013759;28;20254;-67
2023/01/03 05:13:07;;;;;;;0.85;0.43;;;18.20;64.70;;;;;;5003386;28;20185;-66
2023/01/03 05:15:38;;;;;;;0.55;0.40;;;18.20;64.60;;;;;;5001900;28;20191;-67
2023/01/03 05:18:04;;;;;;;0.47;0.40;;;18.20;65.30;;;;;;5014576;28;20199;-67
2023/01/03 05:26:10;;;;;;;0.40;0.40;;;18.20;64.60;;;;;;5011469;28;20211;-67
2023/01/03 05:28:37;;;;;;;0.77;0.60;;;18.20;64.60;;;;;;5002759;28;20177;-67
2023/01/03 05:31:02;;;;;;;0.43;0.43;;;18.20;65.40;;;;;;5005264;28;20599;-67
2023/01/03 05:33:29;;;;;;;0.40;0.40;;;18.20;64.60;;;;;;5020574;28;20265;-67
2023/01/03 05:35:54;;;;;;;0.70;0.68;;;18.20;64.60;;;;;;4998246;28;20185;-68
2023/01/03 05:38:22;;;;;;;1.45;0.60;;;18.20;64.60;;;;;;5002722;28;20640;-65
2023/01/03 05:40:48;;;;;;;0.60;0.43;;;18.20;64.60;;;;;;5005850;28;20214;-68
2023/01/03 05:43:15;;;;;;;0.82;0.60;;;18.20;64.60;;;;;;4994390;28;20219;-67
2023/01/03 05:45:40;;;;;;;0.60;0.60;;;18.20;64.50;;;;;;5023058;28;20213;-67
2023/01/03 05:48:08;;;;;;;0.70;0.70;;;18.10;64.50;;;;;;5027377;28;20192;-68
2023/01/03 05:50:34;;;;;;;0.68;0.68;;;18.20;64.50;;;;;;5003352;28;20192;-68
2023/01/03 05:53:00;;;;;;;0.60;0.60;;;18.20;64.60;;;;;;5012504;28;20200;-68
2023/01/03 05:55:26;;;;;;;1.30;0.70;;;18.20;64.50;;;;;;4989388;28;20180;-67
2023/01/03 05:57:52;;;;;;;1.23;0.70;;;18.10;64.40;;;;;;5005706;28;20196;-68
2023/01/03 06:00:18;;;;;;;0.80;0.80;;;18.20;64.60;;;;;;5010687;28;20189;-68
2023/01/03 06:02:44;;;;;;;0.90;0.73;;;18.20;64.60;;;;;;5002198;28;20195;-67
2023/01/03 06:05:10;;;;;;;0.70;0.70;;;18.20;64.60;;;;;;5005556;28;20220;-67
2023/01/03 06:07:36;;;;;;;1.20;0.80;;;18.20;64.50;;;;;;4997349;28;20184;-67
2023/01/03 06:10:06;;;;;;;0.70;0.50;;;18.20;64.50;;;;;;5005355;28;20184;-67
2023/01/03 06:12:32;;;;;;;0.70;0.70;;;18.20;64.50;;;;;;5007275;28;20181;-67
2023/01/03 06:14:58;;;;;;;0.60;0.60;;;18.20;64.50;;;;;;5011597;28;20652;-67
2023/01/03 06:20:08;;;;;;;0.70;0.70;;;18.20;64.50;;;;;;5013077;28;20191;-67
2023/01/03 06:22:34;;;;;;;0.60;0.60;;;18.20;64.50;;;;;;4997211;28;20208;-67
2023/01/03 06:25:00;;;;;;;0.70;0.70;;;18.20;64.50;;;;;;5013005;28;20224;-67
2023/01/03 06:27:25;;;;;;;0.70;0.70;;;18.10;64.40;;;;;;5006269;28;20268;-67
2023/01/03 06:29:51;;;;;;;1.80;0.85;;;18.20;64.50;;;;;;5012986;28;20219;-67
2023/01/03 06:32:17;;;;;;;0.98;0.80;;;18.10;64.40;;;;;;5009014;28;20195;-67
2023/01/03 06:34:43;;;;;;;1.00;0.90;;;18.20;64.50;;;;;;5001056;28;20262;-68
2023/01/03 06:37:08;;;;;;;0.80;0.80;;;18.20;64.50;;;;;;5010127;28;20231;-68
2023/01/03 06:39:34;;;;;;;0.80;0.80;;;18.20;64.60;;;;;;5002581;28;20252;-69
2023/01/03 06:42:38;;;;;;;0.75;0.75;;;18.20;64.50;;;;;;5003618;28;20185;-70
2023/01/03 06:53:11;;;;;;;0.85;0.80;;;18.20;64.60;;;;;;5012036;28;20207;-69
2023/01/03 06:53:13;;;;;;;0.82;0.75;;;18.20;64.50;;;;;;5010376;28;20195;-69
2023/01/03 06:55:41;;;;;;;0.70;0.70;;;18.20;64.50;;;;;;5000148;28;20176;-68
2023/01/03 06:58:07;;;;;;;0.80;0.80;;;18.20;64.50;;;;;;5012892;28;20266;-69
2023/01/03 07:00:36;;;;;;;0.70;0.70;;;18.20;64.50;;;;;;4992795;28;20189;-68
2023/01/03 07:03:03;;;;;;;1.10;0.82;;;18.20;64.50;;;;;;5004166;28;20183;-69
2023/01/03 07:05:29;;;;;;;1.13;1.00;;;18.20;64.50;;;;;;5007267;28;20209;-69
2023/01/03 07:07:55;;;;;;;0.80;0.80;;;18.20;64.50;;;;;;4985536;28;20193;-69
2023/01/03 07:10:22;;;;;;;1.05;0.80;;;18.20;64.50;;;;;;5003983;28;20267;-69
2023/01/03 07:15:32;;;;;;;0.80;0.80;;;18.20;64.50;;;;;;5013470;28;20565;-69
2023/01/03 07:17:57;;;;;;;1.00;0.90;;;18.20;64.50;;;;;;5011059;28;20196;-69
2023/01/03 07:20:23;;;;;;;1.00;0.80;;;18.20;64.50;;;;;;5005133;28;20187;-69
2023/01/03 07:22:49;;;;;;;1.90;0.88;;;18.20;64.50;;;;;;4996160;28;20187;-68
2023/01/03 07:25:15;;;;;;;0.80;0.80;;;18.20;64.60;;;;;;5003477;28;20214;-68
2023/01/03 07:27:41;;;;;;;1.55;0.90;;;18.20;64.50;;;;;;5005486;28;20243;-69
2023/01/03 07:30:07;;;;;;;1.75;0.80;;;18.20;64.50;;;;;;5011748;28;20274;-68
2023/01/03 07:32:33;;;;;;;0.88;0.85;;;18.20;64.50;;;;;;5005828;28;20185;-68
2023/01/03 07:34:59;;;;;;;1.52;0.88;;;18.20;64.50;;;;;;5019134;28;20210;-68
2023/01/03 07:37:25;;;;;;;1.40;0.93;;;18.20;64.60;;;;;;5013202;28;20184;-69
2023/01/03 07:39:50;;;;;;;2.30;0.85;;;18.20;64.50;;;;;;5011749;28;20186;-68
2023/01/03 07:45:17;;;;;;;1.38;0.82;;;18.20;64.50;;;;;;5002489;28;20342;-69
2023/01/03 07:47:44;;;;;;;0.85;0.60;;;18.20;64.50;;;;;;5023910;28;20200;-68
2023/01/03 07:50:10;;;;;;;1.10;0.85;;;18.20;64.50;;;;;;5011488;28;20184;-68
2023/01/03 07:52:35;;;;;;;1.10;1.00;;;18.20;64.50;;;;;;5003594;28;20187;-68
2023/01/03 07:55:01;;;;;;;1.48;0.82;;;18.20;64.40;;;;;;5004634;28;20215;-69
2023/01/03 07:57:28;;;;;;;1.77;0.93;;;18.20;64.40;;;;;;5018592;28;20620;-68
2023/01/03 07:59:53;;;;;;;1.48;0.93;;;18.20;64.40;;;;;;4991754;28;20286;-68
2023/01/03 08:02:19;;;;;;;1.27;0.80;;;18.20;64.40;;;;;;4987448;28;20186;-68
2023/01/03 08:04:45;;;;;;;0.70;0.60;;;18.20;64.40;;;;;;5004461;28;20239;-68
2023/01/03 08:07:11;;;;;;;1.30;1.20;;;18.20;64.40;;;;;;4986125;28;20195;-68
2023/01/03 08:15:05;;;;;;;1.45;1.35;;;18.20;64.40;;;;;;5012422;28;20227;-68
2023/01/03 08:17:31;;;;;;;1.33;1.17;;;18.20;64.40;;;;;;5003536;28;20195;-68
2023/01/03 08:19:57;;;;;;;1.50;1.30;;;18.20;64.40;;;;;;5011154;28;20183;-69
2023/01/03 08:22:22;;;;;;;1.50;1.35;;;18.20;64.40;;;;;;4991598;28;20215;-69
2023/01/03 08:24:48;;;;;;;1.25;1.15;;;18.20;64.40;;;;;;4998653;28;20228;-69
2023/01/03 08:27:14;;;;;;;2.55;1.50;;;18.20;64.30;;;;;;4983978;28;20280;-69
2023/01/03 08:29:39;;;;;;;1.40;1.30;;;18.20;64.30;;;;;;4999603;28;20180;-69
2023/01/03 08:32:05;;;;;;;1.80;1.40;;;18.20;64.30;;;;;;5008983;28;20199;-68
2023/01/03 08:34:37;;;;;;;2.40;1.33;;;18.20;64.30;;;;;;4996804;28;20227;-68
2023/01/03 08:37:09;;;;;;;2.00;1.65;;;18.20;64.30;;;;;;4995050;28;20185;-69
2023/01/03 08:39:49;;;;;;;1.80;1.63;;;18.20;64.30;;;;;;5000091;28;20192;-68
2023/01/03 08:42:19;;;;;;;1.67;1.35;;;18.30;64.30;;;;;;4991739;28;20198;-68
2023/01/03 08:44:47;;;;;;;1.40;1.30;;;18.20;64.30;;;;;;5003030;28;20730;-69
2023/01/03 08:47:15;;;;;;;1.73;1.58;;;18.20;64.20;;;;;;5011635;28;20191;-69
2023/01/03 08:49:41;;;;;;;1.80;1.50;;;18.20;64.20;;;;;;4987212;28;20231;-69
2023/01/03 08:52:07;;;;;;;1.60;1.35;;;18.20;64.30;;;;;;5014533;28;20266;-68
2023/01/03 08:54:33;;;;;;;2.10;1.70;;;18.20;64.30;;;;;;4990513;28;20227;-68
2023/01/03 08:56:59;;;;;;;1.48;1.38;;;18.20;64.20;;;;;;5015113;28;20217;-68
2023/01/03 08:59:24;;;;;;;1.90;1.48;;;18.20;64.20;;;;;;5014981;28;20191;-68
2023/01/03 09:01:50;;;;;;;2.13;1.55;;;18.30;64.40;;;;;;5015045;28;20271;-68
2023/01/03 09:04:16;;;;;;;1.88;1.30;;;18.20;64.20;;;;;;5014806;28;20212;-68
2023/01/03 09:06:41;;;;;;;1.52;1.20;;;18.30;64.40;;;;;;4998394;28;20200;-69
2023/01/03 09:09:08;;;;;;;2.10;1.50;;;18.20;64.20;;;;;;5012855;28;20802;-68
2023/01/03 09:11:34;;;;;;;1.70;1.40;;;18.20;64.20;;;;;;4987089;28;20181;-69
2023/01/03 09:14:00;;;;;;;1.35;1.25;;;18.20;64.20;;;;;;5005370;28;20243;-68
2023/01/03 09:16:26;;;;;;;1.90;1.38;;;18.30;64.40;;;;;;4990635;28;20279;-68
2023/01/03 09:18:51;;;;;;;1.80;1.30;;;18.30;64.40;;;;;;5006229;28;20253;-68
2023/01/03 09:21:17;;;;;;;1.30;1.20;;;18.30;64.30;;;;;;5013813;28;20290;-68
2023/01/03 09:23:44;;;;;;;1.80;1.17;;;18.20;64.20;;;;;;5002837;28;20211;-68
2023/01/03 09:26:10;;;;;;;1.27;1.17;;;18.30;64.30;;;;;;5004038;28;20220;-68
2023/01/03 09:28:36;;;;;;;1.77;1.13;;;18.30;64.30;;;;;;5014148;28;20191;-68
2023/01/03 09:31:02;;;;;;;1.65;1.30;;;18.30;64.30;;;;;;4987062;28;20256;-68
2023/01/03 09:33:27;;;;;;;1.17;1.10;;;18.30;64.30;;;;;;5014353;28;20204;-68
2023/01/03 09:35:54;;;;;;;1.67;1.58;;;18.20;64.20;;;;;;5014269;28;20192;-68
2023/01/03 09:38:22;;;;;;;2.80;1.30;;;18.30;64.30;;;;;;5008724;28;20215;-68
2023/01/03 09:40:59;;;;;;;1.40;1.30;;;18.30;64.30;;;;;;5018774;28;20567;-69
2023/01/03 09:43:35;;;;;;;1.20;1.10;;;18.30;64.30;;;;;;4986529;28;20258;-68
2023/01/03 09:46:04;;;;;;;1.38;1.25;;;18.30;64.30;;;;;;4986106;28;20254;-68
2023/01/03 09:48:39;;;;;;;1.33;1.13;;;18.30;64.30;;;;;;5006633;28;20272;-68
2023/01/03 10:06:10;;;;;;;1.98;1.40;;;18.30;64.20;;;;;;5010774;28;20687;-68
2023/01/03 10:09:01;;;;;;;1.30;1.17;;;18.20;64.10;;;;;;4992527;28;20201;-68
2023/01/03 10:12:05;;;;;;;1.35;1.20;;;18.30;64.20;;;;;;5005480;28;20194;-69
2023/01/03 10:15:02;;;;;;;1.23;0.90;;;18.30;64.20;;;;;;4992054;28;20201;-68
2023/01/03 10:17:50;;;;;;;1.13;1.00;;;18.30;64.20;;;;;;5010963;28;20191;-69
2023/01/03 10:20:47;;;;;;;1.00;1.00;;;18.30;64.20;;;;;;5012158;28;20188;-69
2023/01/03 10:23:14;;;;;;;0.98;0.90;;;18.30;64.20;;;;;;4988687;28;20274;-69
2023/01/03 10:25:45;;;;;;;1.80;1.00;;;18.30;64.20;;;;;;5014809;22;20234;-71
2023/01/03 10:28:23;;;;;;;1.17;1.08;;;18.30;64.20;;;;;;5001027;28;20190;-71
2023/01/03 10:31:10;;;;;;;1.38;1.10;;;18.30;64.20;;;;;;4975961;28;20217;-71
2023/01/03 10:33:45;;;;;;;1.08;0.90;;;18.30;64.20;;;;;;4958589;28;20183;-71
2023/01/03 10:36:13;;;;;;;1.88;1.00;;;18.30;64.20;;;;;;4967597;28;20217;-72
2023/01/03 10:38:39;;;;;;;1.23;1.10;;;18.30;64.10;;;;;;4943561;29;20237;-71
2023/01/03 10:41:28;;;;;;;2.08;1.08;;;18.30;64.10;;;;;;4970298;28;20201;-71
2023/01/03 10:44:03;;;;;;;1.15;1.00;;;18.30;64.10;;;;;;4958728;28;20200;-71
2023/01/03 10:46:29;;;;;;;1.23;1.10;;;18.30;64.20;;;;;;4963026;28;20216;-71
2023/01/03 10:49:12;;;;;;;1.25;0.90;;;18.30;64.10;;;;;;4970901;28;20198;-71
2023/01/03 10:52:15;;;;;;;1.35;1.05;;;18.30;64.20;;;;;;4991691;28;20196;-71
2023/01/03 10:54:52;;;;;;;0.90;0.90;;;18.30;64.10;;;;;;4993763;28;20199;-71
2023/01/03 10:57:45;;;;;;;1.58;1.30;;;18.30;64.10;;;;;;4960162;28;20226;-71
2023/01/03 11:00:37;;;;;;;1.65;1.10;;;18.30;64.10;;;;;;4961506;28;20194;-71
2023/01/03 11:03:14;;;;;;;1.20;1.00;;;18.30;64.20;;;;;;4961021;28;20194;-70
2023/01/03 11:05:44;;;;;;;1.20;1.10;;;18.30;64.10;;;;;;5002959;28;20622;-71
2023/01/03 11:08:18;;;;;;;1.63;1.13;;;18.30;64.20;;;;;;4937426;28;20244;-71
2023/01/03 11:10:57;;;;;;;1.23;1.13;;;18.30;64.10;;;;;;4942977;29;20189;-72
2023/01/03 11:13:38;;;;;;;1.63;1.13;;;18.30;64.10;;;;;;4959350;28;20193;-71
2023/01/03 11:16:15;;;;;;;2.85;1.17;;;18.30;64.20;;;;;;4958857;28;20296;-71
2023/01/03 11:18:42;;;;;;;1.42;1.10;;;18.30;64.10;;;;;;5043431;28;20202;-71
2023/01/03 11:21:31;;;;;;;1.92;1.02;;;18.30;64.10;;;;;;4967640;28;20221;-72
2023/01/03 11:24:50;;;;;;;1.25;1.10;;;18.30;64.10;;;;;;4960064;28;20196;-71
2023/01/03 11:28:12;;;;;;;1.08;0.90;;;18.30;64.20;;;;;;4944225;28;20210;-71
2023/01/03 11:31:14;;;;;;;0.98;0.90;;;18.30;64.10;;;;;;4970504;28;20206;-71
2023/01/03 11:34:18;;;;;;;0.80;0.80;;;18.30;64.10;;;;;;4965297;28;20179;-71
2023/01/03 11:37:06;;;;;;;1.25;1.15;;;18.30;64.10;;;;;;4944517;28;20279;-73
2023/01/03 11:39:57;;;;;;;0.95;0.75;;;18.30;64.10;;;;;;4948890;28;20221;-72
2023/01/03 11:42:31;;;;;;;0.80;0.80;;;18.30;64.10;;;;;;4975186;28;20232;-71
2023/01/03 11:45:44;;;;;;;1.10;1.00;;;18.30;64.10;;;;;;4957566;28;20601;-71
2023/01/03 11:48:46;;;;;;;0.93;0.90;;;18.30;64.10;;;;;;4962190;28;20197;-71
2023/01/03 11:51:43;;;;;;;0.80;0.80;;;18.30;64.10;;;;;;4964775;28;20243;-72
2023/01/03 11:55:03;;;;;;;1.13;1.00;;;18.30;64.00;;;;;;4945671;28;20203;-71
2023/01/03 11:57:51;;;;;;;1.60;0.85;;;18.30;64.10;;;;;;4953209;28;20186;-71
2023/01/03 12:00:44;;;;;;;1.30;1.10;;;18.30;64.10;;;;;;4951488;28;20309;-72
2023/01/03 12:03:52;;;;;;;0.85;0.77;;;18.30;64.10;;;;;;4969673;28;20227;-71
2023/01/03 12:06:31;;;;;;;0.88;0.80;;;18.30;64.00;;;;;;4966331;28;20229;-71
2023/01/03 12:09:52;;;;;;;0.93;0.90;;;18.30;64.10;;;;;;5034225;28;20198;-71
2023/01/03 12:13:13;;;;;;;1.77;0.88;;;18.30;64.00;;;;;;4966255;28;20201;-71
2023/01/03 12:15:50;;;;;;;0.63;0.63;;;18.30;64.00;;;;;;5049805;28;20218;-71
2023/01/03 12:18:36;;;;;;;2.05;1.00;;;18.30;64.10;;;;;;4959194;28;20193;-71
2023/01/03 12:21:13;;;;;;;0.80;0.80;;;18.30;64.00;;;;;;4963311;28;20190;-71
2023/01/03 12:24:00;;;;;;;1.48;0.95;;;18.30;64.10;;;;;;4955688;28;20225;-71
2023/01/03 12:26:29;;;;;;;1.25;0.90;;;18.30;64.10;;;;;;4958194;28;20218;-71
2023/01/03 12:29:14;;;;;;;0.70;0.70;;;18.30;64.10;;;;;;5017475;28;20190;-71
2023/01/03 12:31:58;;;;;;;0.80;0.80;;;18.30;64.00;;;;;;4989232;28;20194;-71
2023/01/03 12:34:47;;;;;;;0.80;0.80;;;18.30;64.00;;;;;;4961417;28;20190;-71
2023/01/03 12:37:32;;;;;;;1.15;0.80;;;18.30;64.00;;;;;;4969202;28;20205;-71
2023/01/03 12:40:40;;;;;;;1.13;0.73;;;18.30;63.90;;;;;;5027129;28;20282;-71
2023/01/03 12:43:45;;;;;;;1.05;0.73;;;18.30;64.00;;;;;;4962077;28;20199;-71
2023/01/03 12:46:28;;;;;;;0.90;0.70;;;18.30;64.00;;;;;;4969609;28;20229;-71
2023/01/03 12:49:24;;;;;;;1.75;0.80;;;18.30;64.00;;;;;;4969098;28;20205;-71
2023/01/03 12:51:50;;;;;;;2.53;0.70;;;18.30;63.90;;;;;;4973705;28;20197;-71
2023/01/03 12:54:30;;;;;;;1.98;0.90;;;18.30;63.90;;;;;;4958800;28;20196;-71
2023/01/03 12:57:36;;;;;;;1.15;0.88;;;18.30;63.90;;;;;;4986704;28;20193;-71
2023/01/03 13:00:46;;;;;;;3.80;1.13;;;18.30;63.90;;;;;;5012245;28;20191;-71
2023/01/03 13:03:27;;;;;;;1.20;0.80;;;18.30;63.90;;;;;;4996165;28;20205;-71
2023/01/03 13:06:04;;;;;;;0.70;0.70;;;18.30;63.90;;;;;;5037027;28;20217;-71
2023/01/03 13:08:44;;;;;;;0.82;0.82;;;18.30;63.90;;;;;;4974289;28;20201;-71
2023/01/03 13:11:34;;;;;;;1.67;0.80;;;18.30;63.90;;;;;;5025625;28;20285;-71
2023/01/03 13:14:17;;;;;;;0.88;0.82;;;18.30;63.90;;;;;;4977324;28;20198;-71
2023/01/03 13:16:47;;;;;;;0.70;0.70;;;18.30;63.90;;;;;;4963446;28;20210;-71
2023/01/03 13:19:20;;;;;;;0.77;0.70;;;18.30;63.90;;;;;;4954298;28;20197;-71
2023/01/03 13:21:59;;;;;;;1.13;0.60;;;18.30;63.90;;;;;;5041844;28;20214;-71
2023/01/03 13:24:43;;;;;;;1.60;0.80;;;18.30;63.90;;;;;;4951321;28;20191;-71
2023/01/03 13:27:23;;;;;;;1.42;0.80;;;18.30;63.90;;;;;;4949847;28;20706;-71
2023/01/03 13:29:49;;;;;;;1.85;0.70;;;18.30;63.90;;;;;;4969217;28;20195;-71
2023/01/03 13:32:21;;;;;;;0.57;0.57;;;18.30;63.90;;;;;;5039661;28;20193;-71
2023/01/03 13:34:56;;;;;;;0.88;0.65;;;18.30;63.90;;;;;;4968697;28;20246;-71
2023/01/03 13:37:46;;;;;;;1.10;0.73;;;18.30;63.90;;;;;;4969951;28;20218;-71
2023/01/03 13:40:31;;;;;;;1.10;0.80;;;18.30;63.90;;;;;;4952330;28;20203;-71
2023/01/03 13:43:20;;;;;;;0.85;0.70;;;18.30;63.90;;;;;;4947892;28;20193;-71
2023/01/03 13:45:47;;;;;;;1.33;0.65;;;18.30;63.90;;;;;;4934099;28;20646;-71
2023/01/03 13:48:31;;;;;;;0.82;0.68;;;18.30;63.90;;;;;;5020132;28;20213;-71
2023/01/03 13:51:22;;;;;;;1.35;1.00;;;18.30;63.90;;;;;;4957649;28;20199;-71
2023/01/03 13:54:11;;;;;;;0.80;0.65;;;18.30;63.80;;;;;;4955021;28;20200;-71
2023/01/03 13:56:42;;;;;;;0.82;0.77;;;18.30;63.90;;;;;;4973193;28;20222;-71
2023/01/03 13:59:14;;;;;;;0.80;0.70;;;18.30;63.80;;;;;;4967473;28;20721;-71
2023/01/03 14:02:08;;;;;;;0.95;0.77;;;18.30;63.90;;;;;;4952867;28;20241;-71
2023/01/03 14:05:07;;;;;;;1.63;0.70;;;18.30;63.90;;;;;;4985886;28;20201;-71
2023/01/03 14:07:58;;;;;;;3.60;0.90;;;18.30;63.80;;;;;;4960738;28;20201;-73
2023/01/03 14:11:03;;;;;;;2.17;0.90;;;18.30;63.80;;;;;;5027705;28;20200;-71
2023/01/03 14:13:46;;;;;;;2.17;0.63;;;18.30;63.80;;;;;;5029939;28;20673;-71
2023/01/03 14:16:26;;;;;;;1.30;0.70;;;18.30;63.80;;;;;;4952428;28;20598;-71
2023/01/03 14:19:11;;;;;;;1.05;0.88;;;18.30;63.90;;;;;;4953617;28;20253;-71
2023/01/03 14:22:17;;;;;;;0.82;0.60;;;18.30;63.80;;;;;;4962795;28;20186;-71
2023/01/03 14:24:51;;;;;;;1.48;0.90;;;18.30;63.80;;;;;;4982786;28;20193;-72
2023/01/03 14:27:22;;;;;;;0.70;0.70;;;18.30;63.70;;;;;;5004639;28;20210;-72
2023/01/03 14:29:54;;;;;;;1.10;0.70;;;18.30;63.80;;;;;;4942583;29;20258;-72
2023/01/03 14:32:24;;;;;;;1.02;0.70;;;18.30;63.80;;;;;;4949761;28;20191;-71
2023/01/03 14:34:50;;;;;;;0.50;0.50;;;18.30;63.70;;;;;;4975199;28;20210;-72
2023/01/03 14:37:23;;;;;;;0.70;0.70;;;18.30;63.70;;;;;;5044112;28;20281;-72